Time;durP1;ratioP1;P1;durP2;ratioP2;P2;SDS_P1;SDS_P2;PMS_P1;PMS_P2;Temp;Humidity;BMP_temperature;BMP_pressure;BME280_temperature;BME280_humidity;BME280_pressure;Samples;Min_cycle;Max_cycle;Signal;HPM_P1;HPM_P2
2021/05/19 00:01:32;;;;;;;;;;;;;;;10.75;71.92;97700.17;1717823;83;26679;-87
2021/05/19 00:03:58;;;;;;;;;;;;;;;10.71;71.97;97695.69;1718690;83;24521;-88
2021/05/19 00:06:25;;;;;;;;;;;;;;;10.69;72.02;97700.70;1712322;83;20248;-88
2021/05/19 00:08:52;;;;;;;;;;;;;;;10.68;72.05;97693.80;1717122;83;24835;-87
2021/05/19 00:11:18;;;;;;;;;;;;;;;10.68;72.12;97695.95;1710287;82;21604;-88
2021/05/19 00:13:44;;;;;;;;;;;;;;;10.66;72.15;97686.07;1709964;83;26024;-88
2021/05/19 00:16:16;;;;;;;;;;;;;;;10.68;72.19;97690.71;1709746;83;24495;-88
2021/05/19 00:18:42;;;;;;;;;;;;;;;10.70;72.24;97693.18;1706186;83;20189;-88
2021/05/19 00:21:09;;;;;;;;;;;;;;;10.70;72.27;97697.11;1719233;83;20328;-88
2021/05/19 00:23:35;;;;;;;;;;;;;;;10.70;72.32;97699.72;1707241;83;21983;-88
2021/05/19 00:26:02;;;;;;;;;;;;;;;10.64;72.35;97693.20;1708987;82;25558;-88
2021/05/19 00:28:39;;;;;;;;;;;;;;;10.63;72.40;97689.43;1716040;83;24505;-88
2021/05/19 00:31:06;;;;;;;;;;;;;;;10.61;72.45;97703.10;1713001;83;20386;-88
2021/05/19 00:33:32;;;;;;;;;;;;;;;10.57;72.50;97697.30;1717927;83;24759;-87
2021/05/19 00:35:58;;;;;;;;;;;;;;;10.56;72.54;97703.95;1706343;83;20405;-87
2021/05/19 00:38:24;;;;;;;;;;;;;;;10.54;72.59;97706.69;1718261;83;21167;-88
2021/05/19 00:40:52;;;;;;;;;;;;;;;10.51;72.66;97708.73;1714423;83;25313;-88
2021/05/19 00:43:18;;;;;;;;;;;;;;;10.47;72.71;97705.04;1712917;83;20240;-88
2021/05/19 00:45:48;;;;;;;;;;;;;;;10.43;72.78;97697.09;1706848;83;20236;-87
2021/05/19 00:48:12;;;;;;;;;;;;;;;10.43;72.85;97703.64;1721829;83;22107;-87
2021/05/19 00:50:40;;;;;;;;;;;;;;;10.43;72.97;97702.33;1712031;82;26490;-87
2021/05/19 00:53:06;;;;;;;;;;;;;;;10.43;73.02;97701.02;1719474;81;24501;-87
2021/05/19 00:55:40;;;;;;;;;;;;;;;10.42;73.12;97704.59;1711699;83;20204;-88
2021/05/19 00:58:06;;;;;;;;;;;;;;;10.40;73.19;97699.98;1717791;83;24728;-87
2021/05/19 01:00:38;;;;;;;;;;;;;;;10.40;73.27;97700.45;1716518;83;22101;-87
2021/05/19 01:03:05;;;;;;;;;;;;;;;10.37;73.35;97691.05;1716870;83;25938;-87
2021/05/19 01:05:37;;;;;;;;;;;;;;;10.38;73.40;97691.89;1710432;83;24399;-87
2021/05/19 01:10:55;;;;;;;;;;;;;;;10.38;73.58;97687.96;1720464;82;25547;-86
2021/05/19 01:13:22;;;;;;;;;;;;;;;10.38;73.66;97684.87;1715436;83;22067;-87
2021/05/19 01:15:48;;;;;;;;;;;;;;;10.39;73.73;97685.23;1673189;85;25985;-87
2021/05/19 01:18:15;;;;;;;;;;;;;;;10.38;73.79;97691.89;1699245;83;24563;-86
2021/05/19 01:20:42;;;;;;;;;;;;;;;10.34;73.86;97706.17;1715665;83;20261;-87
2021/05/19 01:23:15;;;;;;;;;;;;;;;10.32;73.92;97697.13;1714154;83;24447;-87
2021/05/19 01:25:41;;;;;;;;;;;;;;;10.32;74.00;97698.91;1717715;83;22038;-87
2021/05/19 01:28:07;;;;;;;;;;;;;;;10.28;74.08;97706.19;1718080;82;21047;-87
2021/05/19 01:30:35;;;;;;;;;;;;;;;10.23;74.11;97706.20;1719946;81;24433;-87
2021/05/19 01:33:01;;;;;;;;;;;;;;;10.20;74.17;97703.34;1718244;83;20312;-87
2021/05/19 01:35:28;;;;;;;;;;;;;;;10.25;74.26;97708.23;1717087;83;20276;-87
2021/05/19 01:37:56;;;;;;;;;;;;;;;10.27;74.33;97702.38;1692364;83;22009;-87
2021/05/19 01:40:22;;;;;;;;;;;;;;;10.29;74.43;97707.02;1707609;83;26105;-86
2021/05/19 01:42:49;;;;;;;;;;;;;;;10.28;74.49;97704.88;1715912;82;24497;-87
2021/05/19 01:45:20;;;;;;;;;;;;;;;10.31;74.56;97701.20;1717815;83;20220;-87
2021/05/19 01:47:47;;;;;;;;;;;;;;;10.32;74.64;97702.36;1710772;83;24797;-86
2021/05/19 01:50:20;;;;;;;;;;;;;;;10.38;74.73;97706.27;1711881;83;21427;-86
2021/05/19 01:52:46;;;;;;;;;;;;;;;10.40;74.79;97701.76;1722256;82;25944;-86
2021/05/19 01:55:16;;;;;;;;;;;;;;;10.42;74.88;97699.35;1709835;83;24345;-87
2021/05/19 01:57:49;;;;;;;;;;;;;;;10.47;74.94;97695.89;1713713;83;20586;-87
2021/05/19 02:00:16;;;;;;;;;;;;;;;10.54;74.99;97691.47;1713325;83;24775;-87
2021/05/19 02:02:48;;;;;;;;;;;;;;;10.63;75.08;97689.43;1717713;82;22150;-88
2021/05/19 02:05:15;;;;;;;;;;;;;;;10.68;75.15;97690.71;1710820;82;25960;-88
2021/05/19 02:07:45;;;;;;;;;;;;;;;10.68;75.21;97693.33;1715841;83;24133;-87
2021/05/19 02:10:11;;;;;;;;;;;;;;;10.69;75.26;97689.73;1707918;81;20307;-87
2021/05/19 02:12:37;;;;;;;;;;;;;;;10.73;75.33;97698.19;1713590;83;20399;-87
2021/05/19 02:15:07;;;;;;;;;;;;;;;10.82;75.37;97701.34;1717481;83;20220;-88
2021/05/19 02:17:33;;;;;;;;;;;;;;;10.88;75.40;97704.28;1717960;81;26527;-87
2021/05/19 02:20:10;;;;;;;;;;;;;;;10.96;75.44;97713.30;1714527;83;20304;-87
2021/05/19 02:22:37;;;;;;;;;;;;;;;11.04;75.49;97710.86;1692121;83;20312;-87
2021/05/19 02:25:04;;;;;;;;;;;;;;;11.07;75.54;97710.16;1715492;82;24750;-87
2021/05/19 02:27:33;;;;;;;;;;;;;;;11.11;75.55;97710.23;1717276;81;22101;-87
2021/05/19 02:30:01;;;;;;;;;;;;;;;11.15;75.58;97713.42;1699800;83;26943;-87
2021/05/19 02:32:28;;;;;;;;;;;;;;;11.13;75.58;97714.85;1705922;83;24525;-87
2021/05/19 02:34:57;;;;;;;;;;;;;;;11.13;75.59;97708.78;1714939;83;20284;-87
2021/05/19 02:37:23;;;;;;;;;;;;;;;11.06;75.59;97712.41;1717193;83;24809;-87
2021/05/19 02:39:50;;;;;;;;;;;;;;;11.01;75.60;97714.58;1711847;83;22817;-87
2021/05/19 02:42:22;;;;;;;;;;;;;;;10.99;75.60;97707.33;1710774;83;26084;-87
2021/05/19 02:44:48;;;;;;;;;;;;;;;10.99;75.60;97715.18;1717069;82;24419;-87
2021/05/19 02:47:15;;;;;;;;;;;;;;;11.00;75.61;97707.68;1715597;82;20389;-87
2021/05/19 02:49:42;;;;;;;;;;;;;;;11.01;75.64;97712.44;1718560;83;24926;-87
2021/05/19 02:52:09;;;;;;;;;;;;;;;10.99;75.66;97719.11;1716368;82;22209;-87
2021/05/19 02:54:35;;;;;;;;;;;;;;;10.94;75.68;97713.90;1714911;83;25930;-87
2021/05/19 02:57:01;;;;;;;;;;;;;;;10.89;75.69;97714.28;1707130;81;25247;-87
2021/05/19 02:59:27;;;;;;;;;;;;;;;10.83;75.71;97718.71;1721322;83;20301;-88
2021/05/19 03:01:53;;;;;;;;;;;;;;;10.75;75.72;97714.09;1718750;83;20692;-88
2021/05/19 03:04:19;;;;;;;;;;;;;;;;;;1715705;81;21965;-87
2021/05/19 03:06:48;;;;;;;;;;;;;;;10.76;75.80;97718.85;1687713;83;26313;-88
2021/05/19 03:09:15;;;;;;;;;;;;;;;10.76;75.82;97718.85;1699817;84;24469;-88
2021/05/19 03:11:43;;;;;;;;;;;;;;;10.74;75.85;97722.92;1679233;83;20576;-87
2021/05/19 03:14:19;;;;;;;;;;;;;;;10.76;75.91;97722.78;1693791;84;25498;-87
2021/05/19 03:16:45;;;;;;;;;;;;;;;10.79;75.95;97731.23;1689564;84;22071;-87
2021/05/19 03:19:11;;;;;;;;;;;;;;;10.77;76.00;97730.52;1693887;83;21071;-87
2021/05/19 03:21:37;;;;;;;;;;;;;;;10.73;76.02;97732.20;1685506;84;24511;-87
2021/05/19 03:24:06;;;;;;;;;;;;;;;10.70;76.08;97735.89;1696068;83;20572;-87
2021/05/19 03:26:32;;;;;;;;;;;;;;;10.70;76.13;97720.66;1693006;84;24797;-87
2021/05/19 03:28:58;;;;;;;;;;;;;;;10.73;76.18;97718.64;1696656;84;20293;-87
2021/05/19 03:31:24;;;;;;;;;;;;;;;10.73;76.22;97723.88;1692269;84;21017;-87
2021/05/19 03:33:50;;;;;;;;;;;;;;;10.75;76.28;97721.11;1689159;83;24519;-87
2021/05/19 03:36:16;;;;;;;;;;;;;;;10.75;76.32;97725.04;1688602;83;20348;-87
2021/05/19 03:38:43;;;;;;;;;;;;;;;10.76;76.38;97720.16;1694794;83;24787;-87
2021/05/19 03:41:10;;;;;;;;;;;;;;;10.80;76.41;97726.33;1697724;83;20282;-87
2021/05/19 03:43:39;;;;;;;;;;;;;;;10.84;76.48;97729.54;1680999;84;26228;-87
2021/05/19 03:46:05;;;;;;;;;;;;;;;10.88;76.52;97732.25;1689940;84;24381;-87
2021/05/19 03:48:32;;;;;;;;;;;;;;;10.93;76.57;97738.41;1675096;84;20557;-87
2021/05/19 03:50:58;;;;;;;;;;;;;;;10.92;76.61;97746.73;1692404;83;24848;-87
2021/05/19 03:53:24;;;;;;;;;;;;;;;10.92;76.62;97751.97;1688783;83;21898;-87
2021/05/19 03:55:50;;;;;;;;;;;;;;;10.93;76.67;97751.03;1685834;83;25952;-87
2021/05/19 03:58:16;;;;;;;;;;;;;;;10.95;76.69;97755.67;1685805;83;25093;-87
2021/05/19 04:00:45;;;;;;;;;;;;;;;10.97;76.72;97761.59;1673153;84;20398;-87
2021/05/19 04:03:16;;;;;;;;;;;;;;;10.96;76.76;97764.36;1669315;85;25516;-87
2021/05/19 04:05:43;;;;;;;;;;;;;;;10.97;76.79;97781.22;1643567;84;22036;-87
2021/05/19 04:08:13;;;;;;;;;;;;;;;10.97;76.84;97773.37;1672656;84;26249;-87
2021/05/19 04:10:39;;;;;;;;;;;;;;;10.96;76.87;97786.61;1655502;84;24448;-87
2021/05/19 04:13:06;;;;;;;;;;;;;;;10.95;76.89;97781.84;1690836;83;20235;-87
2021/05/19 04:15:33;;;;;;;;;;;;;;;10.97;76.93;97775.98;1695023;82;24857;-87
2021/05/19 04:17:59;;;;;;;;;;;;;;;11.00;76.96;97773.61;1691502;83;21961;-87
2021/05/19 04:20:25;;;;;;;;;;;;;;;11.07;77.02;97774.78;1674353;84;26017;-87
2021/05/19 04:22:51;;;;;;;;;;;;;;;11.14;77.09;97774.60;1670501;84;24560;-87
2021/05/19 04:25:17;;;;;;;;;;;;;;;11.20;77.15;97780.17;1655767;85;20355;-87
2021/05/19 04:27:44;;;;;;;;;;;;;;;11.27;77.22;97779.19;1671062;84;20308;-88
2021/05/19 04:30:10;;;;;;;;;;;;;;;11.33;77.27;97788.69;1673700;84;21968;-88
2021/05/19 04:32:36;;;;;;;;;;;;;;;11.39;77.34;97793.06;1652310;84;26052;-88
2021/05/19 04:35:02;;;;;;;;;;;;;;;11.40;77.37;97788.98;1691057;83;20337;-88
2021/05/19 04:37:29;;;;;;;;;;;;;;;11.44;77.41;97785.65;1699643;83;20763;-88
2021/05/19 04:39:54;;;;;;;;;;;;;;;11.47;77.43;97783.59;1691229;83;20282;-87
2021/05/19 04:42:21;;;;;;;;;;;;;;;11.49;77.45;97784.30;1696051;83;22108;-88
2021/05/19 04:44:47;;;;;;;;;;;;;;;11.52;77.46;97781.89;1702723;83;26042;-88
2021/05/19 04:47:12;;;;;;;;;;;;;;;11.55;77.48;97785.10;1680183;83;20423;-88
2021/05/19 04:49:39;;;;;;;;;;;;;;;11.58;77.50;97776.13;1691480;83;20249;-88
2021/05/19 04:52:05;;;;;;;;;;;;;;;11.54;77.52;97769.50;1711237;82;24745;-88
2021/05/19 04:54:31;;;;;;;;;;;;;;;11.67;77.54;97780.11;1710108;82;22063;-88
2021/05/19 04:56:57;;;;;;;;;;;;;;;11.80;77.56;97789.13;1698906;83;25838;-88
2021/05/19 04:59:29;;;;;;;;;;;;;;;11.90;77.63;97794.41;1691010;83;24652;-87
2021/05/19 05:01:55;;;;;;;;;;;;;;;11.98;77.66;97795.42;1707488;82;20603;-87
2021/05/19 05:04:22;;;;;;;;;;;;;;;12.14;77.70;97804.95;1691018;83;24790;-88
2021/05/19 05:06:48;;;;;;;;;;;;;;;12.24;77.76;97812.02;1687542;83;20302;-88
2021/05/19 05:09:14;;;;;;;;;;;;;;;12.28;77.75;97814.72;1714023;82;26020;-88
2021/05/19 05:11:46;;;;;;;;;;;;;;;12.24;77.71;97812.84;1696043;83;20331;-88
2021/05/19 05:14:13;;;;;;;;;;;;;;;12.25;77.68;97814.99;1721890;83;20337;-88
2021/05/19 05:16:39;;;;;;;;;;;;;;;12.22;77.59;97813.45;1723366;83;24781;-88
2021/05/19 05:19:05;;;;;;;;;;;;;;;12.24;77.56;97815.47;1713922;83;20365;-88
2021/05/19 05:21:32;;;;;;;;;;;;;;;12.30;77.55;97814.94;1695976;83;21045;-88
2021/05/19 05:23:59;;;;;;;;;;;;;;;12.42;77.57;97818.30;1712620;83;24441;-88
2021/05/19 05:26:33;;;;;;;;;;;;;;;12.52;77.58;97819.98;1710103;82;20393;-88
2021/05/19 05:28:59;;;;;;;;;;;;;;;12.64;77.57;97822.50;1719964;82;24931;-88
2021/05/19 05:31:28;;;;;;;;;;;;;;;12.73;77.55;97823.83;1695269;83;21961;-88
2021/05/19 05:33:54;;;;;;;;;;;;;;;12.80;77.53;97829.37;1706831;83;26088;-88
2021/05/19 05:36:20;;;;;;;;;;;;;;;12.85;77.48;97815.35;1720169;83;20248;-87
2021/05/19 05:38:46;;;;;;;;;;;;;;;12.99;77.46;97811.00;1714843;83;20565;-88
2021/05/19 05:41:19;;;;;;;;;;;;;;;13.15;77.47;97815.25;1715554;83;24788;-88
2021/05/19 05:43:51;;;;;;;;;;;;;;;13.24;77.42;97803.10;1725117;82;22072;-87
2021/05/19 05:46:18;;;;;;;;;;;;;;;13.27;77.30;97809.38;1717809;81;25939;-88
2021/05/19 05:48:49;;;;;;;;;;;;;;;13.29;77.21;97806.97;1718813;82;25268;-87
2021/05/19 05:51:19;;;;;;;;;;;;;;;13.34;77.12;97808.70;1718464;83;20347;-87
2021/05/19 05:53:45;;;;;;;;;;;;;;;13.37;77.04;97811.52;1723272;82;24835;-87
2021/05/19 05:56:11;;;;;;;;;;;;;;;13.37;76.95;97812.83;1719839;83;22245;-87
2021/05/19 05:58:37;;;;;;;;;;;;;;;13.40;76.84;97821.77;1676734;84;21007;-87
2021/05/19 06:01:05;;;;;;;;;;;;;;;13.40;76.71;97817.34;1653912;84;20348;-88
2021/05/19 06:03:34;;;;;;;;;;;;;;;13.36;76.57;97823.82;1660342;84;20558;-87
2021/05/19 06:06:00;;;;;;;;;;;;;;;13.37;76.43;97822.86;1667144;84;25461;-88
2021/05/19 06:08:28;;;;;;;;;;;;;;;13.36;76.32;97839.59;1698319;81;22092;-88
2021/05/19 06:10:58;;;;;;;;;;;;;;;13.34;76.20;97836.77;1696253;82;26529;-87
2021/05/19 06:13:27;;;;;;;;;;;;;;;13.29;76.10;97837.20;1690714;82;25239;-88
2021/05/19 06:15:53;;;;;;;;;;;;;;;13.27;75.99;97840.91;1681062;83;20275;-87
2021/05/19 06:18:21;;;;;;;;;;;;;;;13.25;75.86;97842.87;1657537;85;24766;-87
2021/05/19 06:20:49;;;;;;;;;;;;;;;13.23;75.80;97842.16;1654117;85;22097;-87
2021/05/19 06:23:19;;;;;;;;;;;;;;;13.24;75.77;97846.45;1693060;83;26765;-87
2021/05/19 06:25:57;;;;;;;;;;;;;;;13.26;75.73;97844.50;1690471;83;24516;-88
2021/05/19 06:28:23;;;;;;;;;;;;;;;13.32;75.66;97848.73;1692073;82;20241;-88
2021/05/19 06:30:51;;;;;;;;;;;;;;;13.34;75.62;97846.80;1687803;84;24935;-88
2021/05/19 06:33:23;;;;;;;;;;;;;;;13.33;75.61;97845.62;1696641;83;22730;-87
2021/05/19 06:35:50;;;;;;;;;;;;;;;13.38;75.56;97843.41;1695522;84;27393;-87
2021/05/19 06:38:19;;;;;;;;;;;;;;;13.36;75.51;97843.53;1693188;84;24399;-87
2021/05/19 06:40:44;;;;;;;;;;;;;;;13.36;75.45;97850.61;1691084;83;20283;-86
2021/05/19 06:43:11;;;;;;;;;;;;;;;13.30;75.39;97845.42;1688448;84;20396;-87
2021/05/19 06:45:37;;;;;;;;;;;;;;;13.27;75.28;97843.06;1688119;83;22063;-87
2021/05/19 06:48:06;;;;;;;;;;;;;;;13.30;75.22;97849.85;1690665;83;25950;-87
2021/05/19 06:50:32;;;;;;;;;;;;;;;13.38;75.17;97848.17;1692525;84;24403;-87
2021/05/19 06:52:58;;;;;;;;;;;;;;;13.52;75.14;97843.48;1684423;84;20227;-88
2021/05/19 06:55:30;;;;;;;;;;;;;;;13.63;75.14;97845.48;1693061;83;20433;-87
2021/05/19 06:57:59;;;;;;;;;;;;;;;13.79;75.17;97847.52;1693526;84;22069;-87
2021/05/19 07:00:25;;;;;;;;;;;;;;;13.87;75.12;97848.11;1690367;82;26020;-87
2021/05/19 07:02:53;;;;;;;;;;;;;;;13.94;75.09;97850.53;1694213;84;25284;-87
2021/05/19 07:05:19;;;;;;;;;;;;;;;13.94;74.99;97842.64;1691347;83;20329;-87
2021/05/19 07:07:47;;;;;;;;;;;;;;;13.85;74.84;97845.64;1716528;82;24734;-87
2021/05/19 07:10:13;;;;;;;;;;;;;;;13.80;74.71;97846.56;1720643;81;22748;-87
2021/05/19 07:12:41;;;;;;;;;;;;;;;13.79;74.61;97843.58;1729631;82;25970;-88
2021/05/19 07:15:16;;;;;;;;;;;;;;;13.85;74.53;97844.33;1726624;81;24394;-87
2021/05/19 07:17:44;;;;;;;;;;;;;;;13.90;74.48;97842.58;1727386;81;20232;-87
2021/05/19 07:20:11;;;;;;;;;;;;;;;13.98;74.43;97849.27;1718269;82;25128;-88
2021/05/19 07:22:42;;;;;;;;;;;;;;;14.03;74.38;97845.72;1726246;81;21952;-87
2021/05/19 07:25:09;;;;;;;;;;;;;;;14.09;74.35;97848.61;1721464;81;26179;-88
2021/05/19 07:27:35;;;;;;;;;;;;;;;14.13;74.26;97846.52;1721678;82;24398;-87
2021/05/19 07:30:02;;;;;;;;;;;;;;;14.17;74.14;97846.11;1724603;82;20280;-87
2021/05/19 07:32:28;;;;;;;;;;;;;;;14.21;74.06;97851.91;1722024;81;24756;-87
2021/05/19 07:34:53;;;;;;;;;;;;;;;14.18;73.91;97845.63;1727321;81;20247;-87
2021/05/19 07:37:27;;;;;;;;;;;;;;;14.13;73.78;97853.09;1726736;82;26031;-87
2021/05/19 07:40:02;;;;;;;;;;;;;;;14.13;73.68;97842.08;1721879;81;23929;-87
2021/05/19 07:42:44;;;;;;;;;;;;;;;14.16;73.57;97850.19;1679328;84;20229;-88
2021/05/19 07:45:22;;;;;;;;;;;;;;;14.16;73.49;97848.88;1667371;84;24918;-88
2021/05/19 07:47:48;;;;;;;;;;;;;;;14.15;73.40;97851.16;1664797;84;22153;-88
2021/05/19 07:50:26;;;;;;;;;;;;;;;14.13;73.32;97849.14;1671872;84;26077;-88
2021/05/19 07:52:52;;;;;;;;;;;;;;;14.17;73.24;97851.85;1676406;84;24437;-88
2021/05/19 07:55:31;;;;;;;;;;;;;;;14.20;73.13;97847.60;1665919;84;20293;-88
2021/05/19 07:58:03;;;;;;;;;;;;;;;14.29;73.09;97845.45;1690819;83;25632;-88
2021/05/19 08:03:02;;;;;;;;;;;;;;;14.38;72.98;97843.77;1675132;84;25593;-88
2021/05/19 08:05:29;;;;;;;;;;;;;;;14.49;72.88;97847.05;1670121;84;24391;-87
2021/05/19 08:07:56;;;;;;;;;;;;;;;14.63;72.84;97845.71;1659967;84;20251;-88
2021/05/19 08:10:25;;;;;;;;;;;;;;;14.76;72.78;97845.38;1711381;82;24765;-88
2021/05/19 08:12:54;;;;;;;;;;;;;;;14.88;72.70;97841.56;1717996;82;22068;-88
2021/05/19 08:15:27;;;;;;;;;;;;;;;14.91;72.54;97845.20;1712428;81;26005;-88
2021/05/19 08:17:53;;;;;;;;;;;;;;;14.95;72.43;97846.56;1717514;83;24687;-88
2021/05/19 08:20:21;;;;;;;;;;;;;;;14.93;72.26;97845.41;1721463;83;20313;-88
2021/05/19 08:22:53;;;;;;;;;;;;;;;14.90;72.04;97844.86;1715167;83;25512;-88
2021/05/19 08:25:19;;;;;;;;;;;;;;;14.84;71.85;97848.91;1721284;83;22023;-88
2021/05/19 08:27:45;;;;;;;;;;;;;;;14.78;71.69;97847.39;1717679;83;25949;-88
2021/05/19 08:30:14;;;;;;;;;;;;;;;14.64;71.52;97851.33;1725114;81;24395;-87
2021/05/19 08:32:39;;;;;;;;;;;;;;;14.33;71.24;97852.07;1715525;82;20578;-87
2021/05/19 08:35:07;;;;;;;;;;;;;;;14.07;70.98;97845.80;1724366;83;24924;-87
2021/05/19 08:37:35;;;;;;;;;;;;;;;13.82;70.78;97848.06;1718033;83;22113;-87
2021/05/19 08:40:01;;;;;;;;;;;;;;;13.64;70.60;97848.91;1709567;83;26046;-87
2021/05/19 08:42:30;;;;;;;;;;;;;;;13.48;70.49;97842.91;1718953;83;20885;-87
2021/05/19 08:45:02;;;;;;;;;;;;;;;13.41;70.41;97839.20;1717953;83;20244;-87
2021/05/19 08:47:28;;;;;;;;;;;;;;;13.32;70.31;97843.95;1712836;81;24770;-87
2021/05/19 08:49:54;;;;;;;;;;;;;;;13.28;70.17;97842.58;1725014;83;22051;-87
2021/05/19 08:52:21;;;;;;;;;;;;;;;13.30;70.11;97844.59;1722658;83;26865;-87
2021/05/19 08:54:49;;;;;;;;;;;;;;;13.31;70.02;97839.69;1724953;83;25084;-87
2021/05/19 08:57:18;;;;;;;;;;;;;;;13.37;69.95;97835.16;1721943;81;20591;-87
2021/05/19 08:59:50;;;;;;;;;;;;;;;13.47;69.93;97832.08;1711808;83;24781;-86
2021/05/19 09:02:18;;;;;;;;;;;;;;;13.58;69.91;97829.27;1696765;83;20195;-87
2021/05/19 09:04:44;;;;;;;;;;;;;;;13.69;69.91;97826.48;1719328;83;25946;-87
2021/05/19 09:10:14;;;;;;;;;;;;;;;14.06;70.02;97826.55;1732318;81;20316;-86
2021/05/19 09:12:40;;;;;;;;;;;;;;;14.14;69.95;97819.23;1720566;83;24796;-87
2021/05/19 09:15:12;;;;;;;;;;;;;;;14.33;69.95;97815.22;1716617;83;22083;-87
2021/05/19 09:17:40;;;;;;;;;;;;;;;14.49;69.94;97815.45;1730321;81;26013;-86
2021/05/19 09:20:08;;;;;;;;;;;;;;;14.59;69.88;97811.44;1716083;83;25168;-86
2021/05/19 09:22:35;;;;;;;;;;;;;;;14.66;69.85;97812.52;1721019;83;20330;-87
2021/05/19 09:25:22;;;;;;;;;;;;;;;14.70;69.83;97813.87;1712017;83;25613;-87
2021/05/19 09:27:57;;;;;;;;;;;;;;;14.72;69.76;97812.41;1728077;83;22021;-87
2021/05/19 09:30:41;;;;;;;;;;;;;;;14.78;69.65;97815.77;1713662;81;25917;-87
2021/05/19 09:33:11;;;;;;;;;;;;;;;14.95;69.61;97814.94;1726961;83;24462;-87
2021/05/19 09:35:37;;;;;;;;;;;;;;;15.08;69.55;97814.09;1721630;82;20551;-87
2021/05/19 09:38:03;;;;;;;;;;;;;;;15.18;69.48;97815.33;1718315;81;24771;-87
2021/05/19 09:40:30;;;;;;;;;;;;;;;15.20;69.41;97821.29;1709517;83;22096;-88
2021/05/19 09:42:59;;;;;;;;;;;;;;;15.21;69.42;97826.42;1728840;81;20962;-90
2021/05/19 09:45:41;;;;;;;;;;;;;;;15.08;69.40;97834.69;1723531;83;24384;-90
2021/05/19 09:48:01;;;;;;;;;;;;;;;14.65;69.32;97818.27;1723018;83;20598;-89
2021/05/19 09:50:41;;;;;;;;;;;;;;;14.53;69.26;97816.80;1722008;83;20800;-88
2021/05/19 09:53:14;;;;;;;;;;;;;;;14.61;69.34;97816.91;1721599;83;21977;-88
2021/05/19 09:55:47;;;;;;;;;;;;;;;14.78;69.49;97816.61;1723610;83;25930;-88
2021/05/19 09:58:15;;;;;;;;;;;;;;;14.86;69.66;97813.21;1724121;83;25233;-88
2021/05/19 10:00:43;;;;;;;;;;;;;;;14.95;69.81;97811.82;1717425;81;20324;-87
2021/05/19 10:03:15;;;;;;;;;;;;;;;15.10;69.94;97810.00;1703493;83;25394;-88
2021/05/19 10:05:49;;;;;;;;;;;;;;;15.15;70.06;97808.57;1719386;83;21967;-87
2021/05/19 10:08:13;;;;;;;;;;;;;;;15.20;70.20;97814.22;1716454;82;25984;-87
2021/05/19 10:10:39;;;;;;;;;;;;;;;15.18;70.35;97809.57;1724213;82;24524;-87
2021/05/19 10:13:08;;;;;;;;;;;;;;;15.22;70.61;97810.91;1697134;82;20225;-88
2021/05/19 10:15:36;;;;;;;;;;;;;;;15.32;70.78;97801.14;1713388;83;24783;-87
2021/05/19 10:18:04;;;;;;;;;;;;;;;15.41;71.03;97805.49;1720872;81;22385;-88
2021/05/19 10:20:32;;;;;;;;;;;;;;;15.45;71.25;97805.52;1714720;81;26032;-88
2021/05/19 10:22:58;;;;;;;;;;;;;;;15.35;71.24;97796.88;1718821;83;25216;-87
2021/05/19 10:25:44;;;;;;;;;;;;;;;15.33;71.25;97793.55;1722701;82;20208;-87
2021/05/19 10:28:15;;;;;;;;;;;;;;;15.31;71.29;97799.48;1724213;82;24745;-88
2021/05/19 10:30:43;;;;;;;;;;;;;;;15.28;71.20;97794.50;1717890;81;22261;-88
2021/05/19 10:33:30;;;;;;;;;;;;;;;15.36;71.13;97794.58;1724669;81;25969;-88
2021/05/19 10:36:24;;;;;;;;;;;;;;;15.36;71.08;97789.80;1721535;81;25047;-89
2021/05/19 10:39:10;;;;;;;;;;;;;;;15.54;70.98;97795.91;1713483;81;20316;-89
2021/05/19 10:41:45;;;;;;;;;;;;;;;15.81;70.94;97789.66;1722024;82;24719;-89
2021/05/19 10:44:36;;;;;;;;;;;;;;;16.04;70.89;97797.36;1728138;83;21026;-89
2021/05/19 10:47:15;;;;;;;;;;;;;;;16.11;70.71;97793.13;1721020;81;26150;-89
2021/05/19 10:49:53;;;;;;;;;;;;;;;16.28;70.55;97789.58;1716445;83;24467;-90
2021/05/19 10:52:23;;;;;;;;;;;;;;;16.32;70.40;97793.55;1719763;83;20310;-89
2021/05/19 10:57:52;;;;;;;;;;;;;;;16.14;69.64;97791.50;1721011;83;22066;-88
2021/05/19 11:00:24;;;;;;;;;;;;;;;16.17;69.36;97788.53;1724556;83;26026;-88
2021/05/19 11:02:56;;;;;;;;;;;;;;;16.24;69.25;97790.89;1718560;83;24484;-89
2021/05/19 11:05:32;;;;;;;;;;;;;;;16.27;69.17;97792.37;1722726;81;20284;-89
2021/05/19 11:08:13;;;;;;;;;;;;;;;16.36;69.03;97787.97;1710668;83;25119;-89
2021/05/19 11:10:46;;;;;;;;;;;;;;;16.49;68.89;97784.36;1703081;83;22058;-89
2021/05/19 11:13:11;;;;;;;;;;;;;;;16.48;68.60;97785.34;1692263;83;26031;-88
2021/05/19 11:15:46;;;;;;;;;;;;;;;16.65;68.50;97773.88;1694137;83;24550;-89
2021/05/19 11:21:06;;;;;;;;;;;;;;;16.99;68.28;97763.22;1694469;83;24787;-87
2021/05/19 11:23:32;;;;;;;;;;;;;;;16.84;67.97;97769.64;1695866;83;22117;-87
2021/05/19 11:26:09;;;;;;;;;;;;;;;16.67;67.52;97777.20;1702215;83;26012;-87
2021/05/19 11:28:35;;;;;;;;;;;;;;;16.64;67.24;97780.97;1700887;83;25021;-88
2021/05/19 11:31:09;;;;;;;;;;;;;;;16.59;67.00;97782.45;1692724;83;20798;-88
2021/05/19 11:33:54;;;;;;;;;;;;;;;16.52;66.81;97785.38;1667380;83;24985;-88
2021/05/19 11:36:28;;;;;;;;;;;;;;;16.50;66.65;97784.70;1691368;83;22644;-88
2021/05/19 11:38:55;;;;;;;;;;;;;;;16.60;66.67;97783.61;1690258;83;25976;-88
2021/05/19 11:41:27;;;;;;;;;;;;;;;16.61;66.61;97779.16;1674915;83;24412;-89
2021/05/19 11:43:53;;;;;;;;;;;;;;;16.62;66.57;97783.46;1699462;83;20587;-88
2021/05/19 11:46:25;;;;;;;;;;;;;;;16.58;66.49;97779.46;1701817;83;24697;-88
2021/05/19 11:49:10;;;;;;;;;;;;;;;16.58;66.35;97778.94;1693633;83;22767;-88
2021/05/19 11:51:27;;;;;;;;;;;;;;;16.70;66.24;97772.41;1689591;83;26001;-87
2021/05/19 11:53:56;;;;;;;;;;;;;;;16.79;66.17;97770.63;1689784;83;24474;-87
2021/05/19 11:56:41;;;;;;;;;;;;;;;16.85;65.99;97774.44;1706939;83;20231;-88
2021/05/19 11:59:15;;;;;;;;;;;;;;;16.87;65.76;97767.16;1688419;83;25497;-88
2021/05/19 12:01:59;;;;;;;;;;;;;;;16.87;65.51;97771.12;1706615;83;22086;-88
2021/05/19 12:04:26;;;;;;;;;;;;;;;17.02;65.41;97765.02;1698004;83;25928;-88
2021/05/19 12:06:53;;;;;;;;;;;;;;;17.03;65.30;97761.89;1692926;83;23921;-87
2021/05/19 12:09:19;;;;;;;;;;;;;;;16.93;65.08;97755.94;1705650;83;20205;-87
2021/05/19 12:11:46;;;;;;;;;;;;;;;16.87;64.85;97758.73;1710392;82;24812;-87
2021/05/19 12:14:12;;;;;;;;;;;;;;;16.75;64.63;97759.23;1721192;81;22079;-88
2021/05/19 12:16:43;;;;;;;;;;;;;;;16.69;64.48;97763.34;1721321;83;26080;-87
2021/05/19 12:19:18;;;;;;;;;;;;;;;16.42;64.16;97773.60;1726479;81;24279;-87
2021/05/19 12:21:50;;;;;;;;;;;;;;;16.07;63.91;97769.84;1721090;82;20276;-87
2021/05/19 12:24:17;;;;;;;;;;;;;;;15.84;63.68;97766.91;1721797;82;24870;-87
2021/05/19 12:26:44;;;;;;;;;;;;;;;15.66;63.54;97770.08;1718131;83;22122;-88
2021/05/19 12:29:30;;;;;;;;;;;;;;;15.65;63.51;97777.20;1710871;83;25966;-87
2021/05/19 12:32:16;;;;;;;;;;;;;;;15.65;63.55;97773.23;1720229;83;24503;-87
2021/05/19 12:34:43;;;;;;;;;;;;;;;15.60;63.51;97778.13;1713229;83;20311;-87
2021/05/19 12:37:19;;;;;;;;;;;;;;;15.46;63.45;97776.02;1714189;83;24847;-87
2021/05/19 12:39:45;;;;;;;;;;;;;;;15.39;63.39;97771.02;1723679;83;22206;-87
2021/05/19 12:42:15;;;;;;;;;;;;;;;15.32;63.34;97772.14;1719119;83;26032;-87
2021/05/19 12:44:41;;;;;;;;;;;;;;;15.25;63.29;97767.14;1750185;81;24379;-87
2021/05/19 12:47:15;;;;;;;;;;;;;;;15.23;63.24;97769.08;1727755;81;20569;-87
2021/05/19 12:49:42;;;;;;;;;;;;;;;15.16;63.09;97762.78;1722335;81;24789;-88
2021/05/19 12:52:16;;;;;;;;;;;;;;;15.21;63.09;97762.33;1720723;83;22653;-87
2021/05/19 12:54:44;;;;;;;;;;;;;;;15.31;63.11;97758.62;1724121;82;26131;-88
2021/05/19 12:57:11;;;;;;;;;;;;;;;15.35;63.20;97760.45;1722391;83;24437;-86
2021/05/19 12:59:54;;;;;;;;;;;;;;;15.47;63.28;97767.14;1721924;81;20567;-86
2021/05/19 13:02:25;;;;;;;;;;;;;;;15.43;63.21;97767.95;1689282;83;24783;-86
2021/05/19 13:04:52;;;;;;;;;;;;;;;15.38;63.06;97762.27;1694818;83;22214;-86
2021/05/19 13:07:20;;;;;;;;;;;;;;;15.32;62.86;97766.88;1714505;82;26033;-86
2021/05/19 13:09:47;;;;;;;;;;;;;;;15.28;62.71;97766.81;1706714;82;25233;-85
2021/05/19 13:12:30;;;;;;;;;;;;;;;15.31;62.64;97769.66;1718572;82;20201;-86